CheckWX is a tool to help pilots better visualize weather data.  It is not intended as a substitute for an official pre-flight weather briefing.

12:02:32 UTC

ETIH METAR
Hohenfels Army Air Field Airport
Germany
Current

1 hour ago

ETIH 251056Z AUTO 26010G17KT 9999 -RA FEW024 BKN031 BKN040 OVC047 06/03 A3005 RMK AO2 RAE25RAB53 SLP192 P0000 T00570030 $
Observed
Mar-25 @ 10:56 UTC
Wind
  • 260° at 10 KTS
  • Gusting to 17 KTS
Visibility
10,000+ meters
Flight Rules
VFR
Conditions
Light Rain
Cloud Levels
  • Few at 2,400' AGL
  • Broken at 3,100' AGL
  • Broken at 4,000' AGL
  • Overcast at 4,700' AGL
Temperature
C / 43°F
Dewpoint
C / 37°F
Humidity
81%
Altimeter
30.05" Hg
Pressure
1019.2 hPa
Current Rain
0.01"
Previous

2 hours ago

ETIH 251027Z AUTO 25008KT 9999 FEW022 BKN028 BKN036 BKN043 OVC075 05/03 A3007 RMK AO2 RAE25 SLP199 $
Observed
Mar-25 @ 10:27 UTC
Wind
  • 250° at 8 KTS
Visibility
10,000+ meters
Flight Rules
MVFR
Cloud Levels
  • Few at 2,200' AGL
  • Broken at 2,800' AGL
  • Broken at 3,600' AGL
  • Broken at 4,300' AGL
Temperature
C / 41°F
Dewpoint
C / 37°F
Humidity
87%
Altimeter
30.07" Hg
Pressure
1019.9 hPa
Previous

2 hours ago

ETIH 251025Z AUTO 23007KT 9999 SCT024 BKN030 BKN036 BKN043 OVC075 04/03 A3007 RMK AO2 RAE25 SLP199 $
Observed
Mar-25 @ 10:25 UTC
Wind
  • 230° at 7 KTS
Visibility
10,000+ meters
Flight Rules
MVFR
Cloud Levels
  • Scattered at 2,400' AGL
  • Broken at 3,000' AGL
  • Broken at 3,600' AGL
  • Broken at 4,300' AGL
Temperature
C / 39°F
Dewpoint
C / 37°F
Humidity
93%
Altimeter
30.07" Hg
Pressure
1019.9 hPa